Time;durP1;ratioP1;P1;durP2;ratioP2;P2;SDS_P1;SDS_P2;PMS_P1;PMS_P2;Temp;Humidity;BMP_temperature;BMP_pressure;BME280_temperature;BME280_humidity;BME280_pressure;Samples;Min_cycle;Max_cycle;Signal;HPM_P1;HPM_P2
2021/01/04 00:02:11;;;;;;;;;;;;;;;;;;5007498;28;19925;-63
2021/01/04 00:04:37;;;;;;;;;;;;;;;;;;5008864;28;19931;-62
2021/01/04 00:07:04;;;;;;;;;;;;;;;;;;5010188;28;20464;-62
2021/01/04 00:09:30;;;;;;;;;;;;;;;;;;5008483;28;20291;-63
2021/01/04 00:11:57;;;;;;;;;;;;;;;;;;5006620;28;19926;-65
2021/01/04 00:14:23;;;;;;;;;;;;;;;;;;5006484;28;19932;-64
2021/01/04 00:16:49;;;;;;;;;;;;;;;;;;5011627;28;19963;-63
2021/01/04 00:19:16;;;;;;;;;;;;;;;;;;5006167;28;19925;-63
2021/01/04 00:21:42;;;;;;;;;;;;;;;;;;5008694;28;20375;-64
2021/01/04 00:24:09;;;;;;;;;;;;;;;;;;5010665;28;20272;-64
2021/01/04 00:26:35;;;;;;;;;;;;;;;;;;5006283;28;19931;-63
2021/01/04 00:29:02;;;;;;;;;;;;;;;;;;5004916;28;19926;-62
2021/01/04 00:31:28;;;;;;;;;;;;;;;;;;5007988;28;19930;-62
2021/01/04 00:33:55;;;;;;;;;;;;;;;;;;5008450;28;20083;-63
2021/01/04 00:36:21;;;;;;;;;;;;;;;;;;5005729;28;20342;-62
2021/01/04 00:38:47;;;;;;;;;;;;;;;;;;5006441;28;19936;-63
2021/01/04 00:41:14;;;;;;;;;;;;;;;;;;5006789;28;19979;-62
2021/01/04 00:43:40;;;;;;;;;;;;;;;;;;5005650;28;19926;-63
2021/01/04 00:46:07;;;;;;;;;;;;;;;;;;5010752;28;20179;-62
2021/01/04 00:48:33;;;;;;;;;;;;;;;;;;5010531;28;19931;-63
2021/01/04 00:51:00;;;;;;;;;;;;;;;;;;5011378;28;19929;-62
2021/01/04 00:53:26;;;;;;;;;;;;;;;;;;5010406;28;19940;-63
2021/01/04 00:55:53;;;;;;;;;;;;;;;;;;5009457;28;19930;-63
2021/01/04 00:58:19;;;;;;;;;;;;;;;;;;5010565;28;20164;-62
2021/01/04 01:00:45;;;;;;;;;;;;;;;;;;5004707;28;19926;-62
2021/01/04 01:03:12;;;;;;;;;;;;;;;;;;5007980;28;19926;-62
2021/01/04 01:05:38;;;;;;;;;;;;;;;;;;5001087;28;19933;-62
2021/01/04 01:08:05;;;;;;;;;;;;;;;;;;4999345;28;19933;-62
2021/01/04 01:10:31;;;;;;;;;;;;;;;;;;5003252;28;20019;-62
2021/01/04 01:12:58;;;;;;;;;;;;;;;;;;5007202;28;19931;-62
2021/01/04 01:15:24;;;;;;;;;;;;;;;;;;5009325;28;19932;-62
2021/01/04 01:17:50;;;;;;;;;;;;;;;;;;5010043;28;19932;-62
2021/01/04 01:20:17;;;;;;;;;;;;;;;;;;5010101;28;19933;-62
2021/01/04 01:22:43;;;;;;;;;;;;;;;;;;5003325;28;20402;-62
2021/01/04 01:25:10;;;;;;;;;;;;;;;;;;5010307;28;20341;-63
2021/01/04 01:27:36;;;;;;;;;;;;;;;;;;5008408;28;20315;-62
2021/01/04 01:30:03;;;;;;;;;;;;;;;;;;5007541;28;20308;-63
2021/01/04 01:32:29;;;;;;;;;;;;;;;;;;5008081;28;19929;-62
2021/01/04 01:34:56;;;;;;;;;;;;;;;;;;5008789;28;19925;-62
2021/01/04 01:37:22;;;;;;;;;;;;;;;;;;5002646;28;19925;-63
2021/01/04 01:39:48;;;;;;;;;;;;;;;;;;5003757;28;20292;-64
2021/01/04 01:42:15;;;;;;;;;;;;;;;;;;5010075;28;20278;-61
2021/01/04 01:44:41;;;;;;;;;;;;;;;;;;5007575;28;20338;-62
2021/01/04 01:47:08;;;;;;;;;;;;;;;;;;5008356;28;19948;-65
2021/01/04 01:49:34;;;;;;;;;;;;;;;;;;5007120;28;20273;-62
2021/01/04 01:52:01;;;;;;;;;;;;;;;;;;5008755;28;20388;-62
2021/01/04 01:54:27;;;;;;;;;;;;;;;;;;5002342;28;20302;-61
2021/01/04 01:56:53;;;;;;;;;;;;;;;;;;5008738;28;20392;-61
2021/01/04 01:59:20;;;;;;;;;;;;;;;;;;5008681;28;19933;-61
2021/01/04 02:01:46;;;;;;;;;;;;;;;;;;5010320;28;19930;-62
2021/01/04 02:04:13;;;;;;;;;;;;;;;;;;5010496;28;19925;-61
2021/01/04 02:06:39;;;;;;;;;;;;;;;;;;4995199;28;19934;-61
2021/01/04 02:09:06;;;;;;;;;;;;;;;;;;5008060;28;19926;-61
2021/01/04 02:11:32;;;;;;;;;;;;;;;;;;5009282;28;19925;-62
2021/01/04 02:13:59;;;;;;;;;;;;;;;;;;5004123;28;19926;-62
2021/01/04 02:16:25;;;;;;;;;;;;;;;;;;5002083;28;19932;-61
2021/01/04 02:18:51;;;;;;;;;;;;;;;;;;4999757;28;19980;-61
2021/01/04 02:21:18;;;;;;;;;;;;;;;;;;5008160;28;20350;-62
2021/01/04 02:23:44;;;;;;;;;;;;;;;;;;5010469;28;19925;-61
2021/01/04 02:26:11;;;;;;;;;;;;;;;;;;5012735;28;19925;-61
2021/01/04 02:28:37;;;;;;;;;;;;;;;;;;5001178;28;19926;-61
2021/01/04 02:31:04;;;;;;;;;;;;;;;;;;5010372;28;19926;-61
2021/01/04 02:33:30;;;;;;;;;;;;;;;;;;5012830;28;19925;-61
2021/01/04 02:36:00;;;;;;;;;;;;;;;;;;5011407;28;19926;-61
2021/01/04 02:38:27;;;;;;;;;;;;;;;;;;5002245;28;19925;-61
2021/01/04 02:40:53;;;;;;;;;;;;;;;;;;5010771;28;19929;-62
2021/01/04 02:43:20;;;;;;;;;;;;;;;;;;5005880;28;19933;-60
2021/01/04 02:45:46;;;;;;;;;;;;;;;;;;5012381;28;19935;-60
2021/01/04 02:48:13;;;;;;;;;;;;;;;;;;5012266;28;20212;-60
2021/01/04 02:50:40;;;;;;;;;;;;;;;;;;5013154;28;20510;-62
2021/01/04 02:53:06;;;;;;;;;;;;;;;;;;5012098;28;20261;-61
2021/01/04 02:55:33;;;;;;;;;;;;;;;;;;5012437;28;20265;-61
2021/01/04 02:57:59;;;;;;;;;;;;;;;;;;5012431;28;19930;-61
2021/01/04 03:00:26;;;;;;;;;;;;;;;;;;5012893;28;19926;-62
2021/01/04 03:02:52;;;;;;;;;;;;;;;;;;5009295;28;19926;-61
2021/01/04 03:05:19;;;;;;;;;;;;;;;;;;5012058;28;19941;-62
2021/01/04 03:07:45;;;;;;;;;;;;;;;;;;5004691;28;19933;-62
2021/01/04 03:10:11;;;;;;;;;;;;;;;;;;5013008;28;19979;-62
2021/01/04 03:12:38;;;;;;;;;;;;;;;;;;5011969;28;19925;-61
2021/01/04 03:15:04;;;;;;;;;;;;;;;;;;5012866;28;19929;-62
2021/01/04 03:17:31;;;;;;;;;;;;;;;;;;5012424;28;19926;-62
2021/01/04 03:19:57;;;;;;;;;;;;;;;;;;5011622;28;19925;-62
2021/01/04 03:22:24;;;;;;;;;;;;;;;;;;5009549;28;20004;-62
2021/01/04 03:24:50;;;;;;;;;;;;;;;;;;5008963;28;20072;-62
2021/01/04 03:27:17;;;;;;;;;;;;;;;;;;5002964;28;19933;-62
2021/01/04 03:29:43;;;;;;;;;;;;;;;;;;5010486;28;20402;-62
2021/01/04 03:32:10;;;;;;;;;;;;;;;;;;4999430;28;19926;-62
2021/01/04 03:34:36;;;;;;;;;;;;;;;;;;5006850;28;19929;-62
2021/01/04 03:37:03;;;;;;;;;;;;;;;;;;5011010;28;20640;-62
2021/01/04 03:39:29;;;;;;;;;;;;;;;;;;5009460;28;19930;-62
2021/01/04 03:41:55;;;;;;;;;;;;;;;;;;5012050;28;19925;-61
2021/01/04 03:44:22;;;;;;;;;;;;;;;;;;5012005;28;20355;-61
2021/01/04 03:46:48;;;;;;;;;;;;;;;;;;5007645;28;20275;-62
2021/01/04 03:49:15;;;;;;;;;;;;;;;;;;5011724;28;19925;-62
2021/01/04 03:51:41;;;;;;;;;;;;;;;;;;5011498;28;19933;-62
2021/01/04 03:54:08;;;;;;;;;;;;;;;;;;5006851;28;20323;-62
2021/01/04 03:56:34;;;;;;;;;;;;;;;;;;5003782;28;19948;-62
2021/01/04 03:59:01;;;;;;;;;;;;;;;;;;5008650;28;19948;-62
2021/01/04 04:01:27;;;;;;;;;;;;;;;;;;5007582;28;19996;-62
2021/01/04 04:03:53;;;;;;;;;;;;;;;;;;5009268;28;19925;-62
2021/01/04 04:06:20;;;;;;;;;;;;;;;;;;5005798;28;19929;-62
2021/01/04 04:08:46;;;;;;;;;;;;;;;;;;5004849;28;19936;-62
2021/01/04 04:11:13;;;;;;;;;;;;;;;;;;5003701;28;19930;-62
2021/01/04 04:13:39;;;;;;;;;;;;;;;;;;5008787;28;19937;-62
2021/01/04 04:16:06;;;;;;;;;;;;;;;;;;5002887;28;19953;-62
2021/01/04 04:18:32;;;;;;;;;;;;;;;;;;5008641;28;19926;-62
2021/01/04 04:20:58;;;;;;;;;;;;;;;;;;5010879;28;19936;-62
2021/01/04 04:23:25;;;;;;;;;;;;;;;;;;5010092;28;19926;-62
2021/01/04 04:25:51;;;;;;;;;;;;;;;;;;5011658;28;19929;-62
2021/01/04 04:28:18;;;;;;;;;;;;;;;;;;5010881;28;20295;-62
2021/01/04 04:30:44;;;;;;;;;;;;;;;;;;5008718;28;19925;-62
2021/01/04 04:33:11;;;;;;;;;;;;;;;;;;5008622;28;19963;-62
2021/01/04 04:35:37;;;;;;;;;;;;;;;;;;5002582;28;19933;-63
2021/01/04 04:38:03;;;;;;;;;;;;;;;;;;4996132;28;19950;-62
2021/01/04 04:40:30;;;;;;;;;;;;;;;;;;5004889;28;19925;-62
2021/01/04 04:42:56;;;;;;;;;;;;;;;;;;5011296;28;19925;-63
2021/01/04 04:45:23;;;;;;;;;;;;;;;;;;5009329;28;19926;-62
2021/01/04 04:47:49;;;;;;;;;;;;;;;;;;5010783;28;19929;-62
2021/01/04 04:50:16;;;;;;;;;;;;;;;;;;5007400;28;19933;-62
2021/01/04 04:52:42;;;;;;;;;;;;;;;;;;5000060;28;19926;-63
2021/01/04 04:55:08;;;;;;;;;;;;;;;;;;5001885;28;19942;-63
2021/01/04 04:57:35;;;;;;;;;;;;;;;;;;5010638;28;19932;-62
2021/01/04 05:00:01;;;;;;;;;;;;;;;;;;5010722;28;19926;-62
2021/01/04 05:02:28;;;;;;;;;;;;;;;;;;5006440;28;19936;-62
2021/01/04 05:04:54;;;;;;;;;;;;;;;;;;5010139;28;19925;-62
2021/01/04 05:07:21;;;;;;;;;;;;;;;;;;5009698;28;19925;-62
2021/01/04 05:09:47;;;;;;;;;;;;;;;;;;5000280;28;19926;-62
2021/01/04 05:12:14;;;;;;;;;;;;;;;;;;5005734;28;19926;-62
2021/01/04 05:14:40;;;;;;;;;;;;;;;;;;5010859;28;19929;-62
2021/01/04 05:17:06;;;;;;;;;;;;;;;;;;5024575;23;19936;-66
2021/01/04 05:19:33;;;;;;;;;;;;;;;;;;5013744;28;19926;-66
2021/01/04 05:21:59;;;;;;;;;;;;;;;;;;5016036;28;20025;-66
2021/01/04 05:24:26;;;;;;;;;;;;;;;;;;5012969;28;19953;-68
2021/01/04 05:26:52;;;;;;;;;;;;;;;;;;5012199;28;20383;-68
2021/01/04 05:29:19;;;;;;;;;;;;;;;;;;5019597;28;19929;-68
2021/01/04 05:31:46;;;;;;;;;;;;;;;;;;5016446;28;19933;-68
2021/01/04 05:34:13;;;;;;;;;;;;;;;;;;5011731;28;19930;-67
2021/01/04 05:36:39;;;;;;;;;;;;;;;;;;5014695;28;19925;-67
2021/01/04 05:39:08;;;;;;;;;;;;;;;;;;5015348;28;20016;-67
2021/01/04 05:41:35;;;;;;;;;;;;;;;;;;5015890;28;19925;-67
2021/01/04 05:44:01;;;;;;;;;;;;;;;;;;5019617;28;20029;-67
2021/01/04 05:46:27;;;;;;;;;;;;;;;;;;5020379;28;19926;-67
2021/01/04 05:48:54;;;;;;;;;;;;;;;;;;5016283;28;19929;-67
2021/01/04 05:51:20;;;;;;;;;;;;;;;;;;5010617;28;19926;-67
2021/01/04 05:53:47;;;;;;;;;;;;;;;;;;5013709;28;19925;-67
2021/01/04 05:56:13;;;;;;;;;;;;;;;;;;5008681;28;19925;-67
2021/01/04 05:58:40;;;;;;;;;;;;;;;;;;5015895;28;19932;-67
2021/01/04 06:01:06;;;;;;;;;;;;;;;;;;5018928;28;19925;-67
2021/01/04 06:03:32;;;;;;;;;;;;;;;;;;5010296;28;19926;-67
2021/01/04 06:05:59;;;;;;;;;;;;;;;;;;5028204;28;19929;-67
2021/01/04 06:08:25;;;;;;;;;;;;;;;;;;5036158;28;19932;-67
2021/01/04 06:10:52;;;;;;;;;;;;;;;;;;5016508;28;19926;-67
2021/01/04 06:13:18;;;;;;;;;;;;;;;;;;5018619;28;19952;-67
2021/01/04 06:15:45;;;;;;;;;;;;;;;;;;5008238;28;19933;-67
2021/01/04 06:18:11;;;;;;;;;;;;;;;;;;5019041;28;19926;-67
2021/01/04 06:20:38;;;;;;;;;;;;;;;;;;5013460;28;19933;-66
2021/01/04 06:23:04;;;;;;;;;;;;;;;;;;5020085;28;19925;-67
2021/01/04 06:25:31;;;;;;;;;;;;;;;;;;5019594;28;19968;-67
2021/01/04 06:27:57;;;;;;;;;;;;;;;;;;5009372;28;19934;-67
2021/01/04 06:30:23;;;;;;;;;;;;;;;;;;5019523;28;19996;-67
2021/01/04 06:32:50;;;;;;;;;;;;;;;;;;5017387;28;19925;-67
2021/01/04 06:35:16;;;;;;;;;;;;;;;;;;5014050;28;20028;-67
2021/01/04 06:37:45;;;;;;;;;;;;;;;;;;5019528;28;20470;-67
2021/01/04 06:40:11;;;;;;;;;;;;;;;;;;5018788;28;19933;-67
2021/01/04 06:42:38;;;;;;;;;;;;;;;;;;5021841;28;19938;-67
2021/01/04 06:45:04;;;;;;;;;;;;;;;;;;5017000;28;19926;-66
2021/01/04 06:47:31;;;;;;;;;;;;;;;;;;5011589;28;19925;-66
2021/01/04 06:49:57;;;;;;;;;;;;;;;;;;5010586;28;19926;-67
2021/01/04 06:52:23;;;;;;;;;;;;;;;;;;5015716;28;19926;-66
2021/01/04 06:54:50;;;;;;;;;;;;;;;;;;5019375;28;20047;-67
2021/01/04 06:57:17;;;;;;;;;;;;;;;;;;5022224;28;19926;-67
2021/01/04 06:59:43;;;;;;;;;;;;;;;;;;5029370;28;19980;-67
2021/01/04 07:02:10;;;;;;;;;;;;;;;;;;5025881;28;19948;-67
2021/01/04 07:04:36;;;;;;;;;;;;;;;;;;5017502;28;20032;-66
2021/01/04 07:07:03;;;;;;;;;;;;;;;;;;5018895;28;19926;-67
2021/01/04 07:09:29;;;;;;;;;;;;;;;;;;5013067;28;19932;-67
2021/01/04 07:11:55;;;;;;;;;;;;;;;;;;5022445;28;20379;-67
2021/01/04 07:14:22;;;;;;;;;;;;;;;;;;5020301;28;20036;-67
2021/01/04 07:16:48;;;;;;;;;;;;;;;;;;5019889;28;20007;-67
2021/01/04 07:19:15;;;;;;;;;;;;;;;;;;5014602;28;19925;-66
2021/01/04 07:21:41;;;;;;;;;;;;;;;;;;5016531;28;19979;-66
2021/01/04 07:24:08;;;;;;;;;;;;;;;;;;5017890;28;19973;-66
2021/01/04 07:26:36;;;;;;;;;;;;;;;;;;5014486;28;20369;-67
2021/01/04 07:29:02;;;;;;;;;;;;;;;;;;5014570;28;19992;-67
2021/01/04 07:31:29;;;;;;;;;;;;;;;;;;5013699;28;20036;-67
2021/01/04 07:33:55;;;;;;;;;;;;;;;;;;5010434;28;19926;-67
2021/01/04 07:36:21;;;;;;;;;;;;;;;;;;5017297;28;19930;-67
2021/01/04 07:38:48;;;;;;;;;;;;;;;;;;5017324;28;19933;-67
2021/01/04 07:41:18;;;;;;;;;;;;;;;;;;5016527;28;19925;-67
2021/01/04 07:43:44;;;;;;;;;;;;;;;;;;5011778;28;19925;-67
2021/01/04 07:46:11;;;;;;;;;;;;;;;;;;5010133;28;19936;-67
2021/01/04 07:48:37;;;;;;;;;;;;;;;;;;5017051;28;20012;-67
2021/01/04 07:51:04;;;;;;;;;;;;;;;;;;5017307;28;19925;-67
2021/01/04 07:53:31;;;;;;;;;;;;;;;;;;5017043;28;20012;-67
2021/01/04 07:55:57;;;;;;;;;;;;;;;;;;5005650;28;19925;-67
2021/01/04 07:58:23;;;;;;;;;;;;;;;;;;5008208;28;19977;-67
2021/01/04 08:00:50;;;;;;;;;;;;;;;;;;5012219;28;19930;-67
2021/01/04 08:03:17;;;;;;;;;;;;;;;;;;5016328;28;20349;-67
2021/01/04 08:05:43;;;;;;;;;;;;;;;;;;5017614;28;19956;-67
2021/01/04 08:08:10;;;;;;;;;;;;;;;;;;5016843;28;19926;-67
2021/01/04 08:10:36;;;;;;;;;;;;;;;;;;5012635;28;19961;-67
2021/01/04 08:13:03;;;;;;;;;;;;;;;;;;5015684;28;20019;-67
2021/01/04 08:15:29;;;;;;;;;;;;;;;;;;5015184;28;19936;-67
2021/01/04 08:17:55;;;;;;;;;;;;;;;;;;5010789;28;19926;-67
2021/01/04 08:20:22;;;;;;;;;;;;;;;;;;5015761;28;19932;-67
2021/01/04 08:22:48;;;;;;;;;;;;;;;;;;5019939;28;19929;-67
2021/01/04 08:25:15;;;;;;;;;;;;;;;;;;5015482;28;19975;-67
2021/01/04 08:27:41;;;;;;;;;;;;;;;;;;5015035;28;19926;-67
2021/01/04 08:30:08;;;;;;;;;;;;;;;;;;5018981;28;20015;-67
2021/01/04 08:32:34;;;;;;;;;;;;;;;;;;5019286;28;19926;-66
2021/01/04 08:35:01;;;;;;;;;;;;;;;;;;5011674;28;19956;-66
2021/01/04 08:37:27;;;;;;;;;;;;;;;;;;5015979;28;19964;-66
2021/01/04 08:39:54;;;;;;;;;;;;;;;;;;5018036;28;19971;-67
2021/01/04 08:42:20;;;;;;;;;;;;;;;;;;5017496;28;19965;-66
2021/01/04 08:44:47;;;;;;;;;;;;;;;;;;5016724;28;19932;-66
2021/01/04 08:47:13;;;;;;;;;;;;;;;;;;5008579;28;19969;-66
2021/01/04 08:49:40;;;;;;;;;;;;;;;;;;5015301;28;19926;-66
2021/01/04 08:52:06;;;;;;;;;;;;;;;;;;5012992;28;20170;-66
2021/01/04 08:54:33;;;;;;;;;;;;;;;;;;5004207;28;20009;-66
2021/01/04 08:56:59;;;;;;;;;;;;;;;;;;5010881;28;20017;-67
2021/01/04 08:59:30;;;;;;;;;;;;;;;;;;5003158;28;20371;-67
2021/01/04 09:01:57;;;;;;;;;;;;;;;;;;5008120;28;20419;-67
2021/01/04 09:04:23;;;;;;;;;;;;;;;;;;5019874;28;19925;-66
2021/01/04 09:06:50;;;;;;;;;;;;;;;;;;5012438;28;20028;-67
2021/01/04 09:09:16;;;;;;;;;;;;;;;;;;5015757;28;20439;-67
2021/01/04 09:11:43;;;;;;;;;;;;;;;;;;5022135;28;19925;-66
2021/01/04 09:14:09;;;;;;;;;;;;;;;;;;5022839;28;20384;-66
2021/01/04 09:16:36;;;;;;;;;;;;;;;;;;5017972;28;20024;-67
2021/01/04 09:19:02;;;;;;;;;;;;;;;;;;5019590;28;20264;-67
2021/01/04 09:21:29;;;;;;;;;;;;;;;;;;5016371;28;20419;-67
2021/01/04 09:23:55;;;;;;;;;;;;;;;;;;5015525;28;19964;-67
2021/01/04 09:26:22;;;;;;;;;;;;;;;;;;5010793;28;19929;-67
2021/01/04 09:28:48;;;;;;;;;;;;;;;;;;5014433;28;20099;-67
2021/01/04 09:31:15;;;;;;;;;;;;;;;;;;5006817;28;19932;-67
2021/01/04 09:33:41;;;;;;;;;;;;;;;;;;5011151;28;19925;-66
2021/01/04 09:36:08;;;;;;;;;;;;;;;;;;5013886;28;19976;-66
2021/01/04 09:38:34;;;;;;;;;;;;;;;;;;5017914;28;20020;-67
2021/01/04 09:41:01;;;;;;;;;;;;;;;;;;5019028;28;19926;-66
2021/01/04 09:43:27;;;;;;;;;;;;;;;;;;5023404;28;19932;-67
2021/01/04 09:45:54;;;;;;;;;;;;;;;;;;5018066;28;20291;-67
2021/01/04 09:48:22;;;;;;;;;;;;;;;;;;5012065;28;19980;-66
2021/01/04 09:50:48;;;;;;;;;;;;;;;;;;5014594;28;19929;-66
2021/01/04 09:53:15;;;;;;;;;;;;;;;;;;5015756;28;20132;-67
2021/01/04 09:55:41;;;;;;;;;;;;;;;;;;5013893;28;20380;-67
2021/01/04 09:58:08;;;;;;;;;;;;;;;;;;5017604;28;19993;-67
2021/01/04 10:00:34;;;;;;;;;;;;;;;;;;5015566;28;19925;-67
2021/01/04 10:03:01;;;;;;;;;;;;;;;;;;5019609;28;20021;-66
2021/01/04 10:05:27;;;;;;;;;;;;;;;;;;5022137;28;19968;-67
2021/01/04 10:07:54;;;;;;;;;;;;;;;;;;5019719;28;19929;-67
2021/01/04 10:10:20;;;;;;;;;;;;;;;;;;5016913;28;19929;-67
2021/01/04 10:12:47;;;;;;;;;;;;;;;;;;5021279;28;19964;-67
2021/01/04 10:15:13;;;;;;;;;;;;;;;;;;5012359;28;19929;-67
2021/01/04 10:17:40;;;;;;;;;;;;;;;;;;5020067;28;19937;-67
2021/01/04 10:20:06;;;;;;;;;;;;;;;;;;5019367;28;19937;-67
2021/01/04 10:22:33;;;;;;;;;;;;;;;;;;5018413;28;19926;-67
2021/01/04 10:24:59;;;;;;;;;;;;;;;;;;5017798;28;19926;-67
2021/01/04 10:27:26;;;;;;;;;;;;;;;;;;5015084;28;19932;-67
2021/01/04 10:29:53;;;;;;;;;;;;;;;;;;5013905;28;19925;-67
2021/01/04 10:32:19;;;;;;;;;;;;;;;;;;5012229;28;19925;-67
2021/01/04 10:34:46;;;;;;;;;;;;;;;;;;5010213;28;20012;-67
2021/01/04 10:37:12;;;;;;;;;;;;;;;;;;5012661;28;19931;-67
2021/01/04 10:39:39;;;;;;;;;;;;;;;;;;5005739;28;19981;-66
2021/01/04 10:42:05;;;;;;;;;;;;;;;;;;5008318;28;19932;-67
2021/01/04 10:44:32;;;;;;;;;;;;;;;;;;5015047;28;20534;-68
2021/01/04 10:46:58;;;;;;;;;;;;;;;;;;5008815;28;19925;-67
2021/01/04 10:49:25;;;;;;;;;;;;;;;;;;5008378;28;19926;-67
2021/01/04 10:51:51;;;;;;;;;;;;;;;;;;5005712;28;19929;-67
2021/01/04 10:54:18;;;;;;;;;;;;;;;;;;5010346;28;19929;-68
2021/01/04 10:56:44;;;;;;;;;;;;;;;;;;5011568;28;20481;-67
2021/01/04 10:59:11;;;;;;;;;;;;;;;;;;5011804;28;20008;-68
2021/01/04 11:01:37;;;;;;;;;;;;;;;;;;5021033;28;20023;-68
2021/01/04 11:04:04;;;;;;;;;;;;;;;;;;5013835;28;20039;-68
2021/01/04 11:06:30;;;;;;;;;;;;;;;;;;5016442;28;19936;-67
2021/01/04 11:08:57;;;;;;;;;;;;;;;;;;5015224;28;19965;-67
2021/01/04 11:11:23;;;;;;;;;;;;;;;;;;5018352;28;20020;-68
2021/01/04 11:13:50;;;;;;;;;;;;;;;;;;5011381;28;19936;-66
2021/01/04 11:16:16;;;;;;;;;;;;;;;;;;5019433;28;19926;-67
2021/01/04 11:18:43;;;;;;;;;;;;;;;;;;5026397;23;20384;-63
2021/01/04 11:21:09;;;;;;;;;;;;;;;;;;5012717;28;20046;-64
2021/01/04 11:23:36;;;;;;;;;;;;;;;;;;5008495;28;19926;-64
2021/01/04 11:26:02;;;;;;;;;;;;;;;;;;5012250;28;19977;-64
2021/01/04 11:28:29;;;;;;;;;;;;;;;;;;5012358;28;20383;-63
2021/01/04 11:30:55;;;;;;;;;;;;;;;;;;5006004;28;19933;-64
2021/01/04 11:33:24;;;;;;;;;;;;;;;;;;5011056;28;20024;-65
2021/01/04 11:35:51;;;;;;;;;;;;;;;;;;5010297;28;19934;-64
2021/01/04 11:38:18;;;;;;;;;;;;;;;;;;5011874;28;19968;-64
2021/01/04 11:40:44;;;;;;;;;;;;;;;;;;5006287;28;20017;-64
2021/01/04 11:43:10;;;;;;;;;;;;;;;;;;5012533;28;19934;-66
2021/01/04 11:45:37;;;;;;;;;;;;;;;;;;5012662;28;19937;-63
2021/01/04 11:48:03;;;;;;;;;;;;;;;;;;5006577;28;20282;-63
2021/01/04 11:50:30;;;;;;;;;;;;;;;;;;5010524;28;19926;-64
2021/01/04 11:52:56;;;;;;;;;;;;;;;;;;5012040;28;19968;-63
2021/01/04 11:55:23;;;;;;;;;;;;;;;;;;5004346;28;19925;-65
2021/01/04 11:57:49;;;;;;;;;;;;;;;;;;5003374;28;20001;-62
2021/01/04 12:00:16;;;;;;;;;;;;;;;;;;5011145;28;19929;-64
2021/01/04 12:02:43;;;;;;;;;;;;;;;;;;5011349;28;20398;-63
2021/01/04 12:05:09;;;;;;;;;;;;;;;;;;5010165;28;19926;-65
2021/01/04 12:07:36;;;;;;;;;;;;;;;;;;5008635;28;20023;-63
2021/01/04 12:10:02;;;;;;;;;;;;;;;;;;5002201;28;20269;-66
2021/01/04 12:12:29;;;;;;;;;;;;;;;;;;5006518;28;19933;-65
2021/01/04 12:14:55;;;;;;;;;;;;;;;;;;5009307;28;20277;-64
2021/01/04 12:17:22;;;;;;;;;;;;;;;;;;5008287;28;19926;-64
2021/01/04 12:19:48;;;;;;;;;;;;;;;;;;5004207;28;20287;-64
2021/01/04 12:22:15;;;;;;;;;;;;;;;;;;5009938;28;20019;-67
2021/01/04 12:24:41;;;;;;;;;;;;;;;;;;5006487;28;20016;-65
2021/01/04 12:27:09;;;;;;;;;;;;;;;;;;5010619;28;19932;-65
2021/01/04 12:29:35;;;;;;;;;;;;;;;;;;5005094;28;19934;-65
2021/01/04 12:32:02;;;;;;;;;;;;;;;;;;5005989;28;20047;-65
2021/01/04 12:34:28;;;;;;;;;;;;;;;;;;5008732;28;19926;-68
2021/01/04 12:36:55;;;;;;;;;;;;;;;;;;5009547;28;19971;-64
2021/01/04 12:39:21;;;;;;;;;;;;;;;;;;5010687;28;19934;-65
2021/01/04 12:41:48;;;;;;;;;;;;;;;;;;5010882;28;19933;-65
2021/01/04 12:44:15;;;;;;;;;;;;;;;;;;5010659;28;20299;-64
2021/01/04 12:46:42;;;;;;;;;;;;;;;;;;5011108;28;19925;-62
2021/01/04 12:49:08;;;;;;;;;;;;;;;;;;5011033;28;19926;-64
2021/01/04 12:51:35;;;;;;;;;;;;;;;;;;5004467;28;19933;-65
2021/01/04 12:54:03;;;;;;;;;;;;;;;;;;5004492;28;20387;-63
2021/01/04 12:56:29;;;;;;;;;;;;;;;;;;5002905;28;19926;-63
2021/01/04 12:58:56;;;;;;;;;;;;;;;;;;5009269;28;20245;-64
2021/01/04 13:01:22;;;;;;;;;;;;;;;;;;5009722;28;19925;-64
2021/01/04 13:03:49;;;;;;;;;;;;;;;;;;5009071;28;20350;-64
2021/01/04 13:06:15;;;;;;;;;;;;;;;;;;5004176;28;19931;-64
2021/01/04 13:08:42;;;;;;;;;;;;;;;;;;5010731;28;20395;-63
2021/01/04 13:11:08;;;;;;;;;;;;;;;;;;5011191;28;19971;-63
2021/01/04 13:13:35;;;;;;;;;;;;;;;;;;5010160;28;19929;-63
2021/01/04 13:16:02;;;;;;;;;;;;;;;;;;5010774;28;19926;-63
2021/01/04 13:18:28;;;;;;;;;;;;;;;;;;5010932;28;20290;-64
2021/01/04 13:20:55;;;;;;;;;;;;;;;;;;5011177;28;19925;-64
2021/01/04 13:23:21;;;;;;;;;;;;;;;;;;5008697;28;20309;-63
2021/01/04 13:25:48;;;;;;;;;;;;;;;;;;5009262;28;19925;-64
2021/01/04 13:28:14;;;;;;;;;;;;;;;;;;5009258;28;20298;-65
2021/01/04 13:30:41;;;;;;;;;;;;;;;;;;5010020;28;19929;-63
2021/01/04 13:33:07;;;;;;;;;;;;;;;;;;5004532;28;20298;-63
2021/01/04 13:35:34;;;;;;;;;;;;;;;;;;5007295;28;19930;-65
2021/01/04 13:38:00;;;;;;;;;;;;;;;;;;5010852;28;19972;-64
2021/01/04 13:40:27;;;;;;;;;;;;;;;;;;5007568;28;19925;-65
2021/01/04 13:42:53;;;;;;;;;;;;;;;;;;5006046;28;19925;-65
2021/01/04 13:45:20;;;;;;;;;;;;;;;;;;5006467;28;20033;-64
2021/01/04 13:47:46;;;;;;;;;;;;;;;;;;5013678;28;19932;-64
2021/01/04 13:50:13;;;;;;;;;;;;;;;;;;5013023;28;19925;-63
2021/01/04 13:52:39;;;;;;;;;;;;;;;;;;5003784;28;20012;-64
2021/01/04 13:55:06;;;;;;;;;;;;;;;;;;5009064;28;20012;-63
2021/01/04 13:57:32;;;;;;;;;;;;;;;;;;5008872;28;19957;-63
2021/01/04 13:59:59;;;;;;;;;;;;;;;;;;5005770;28;19999;-64
2021/01/04 14:02:25;;;;;;;;;;;;;;;;;;5009155;28;19932;-64
2021/01/04 14:04:52;;;;;;;;;;;;;;;;;;5008818;28;19947;-63
2021/01/04 14:07:18;;;;;;;;;;;;;;;;;;5009033;28;19929;-64
2021/01/04 14:09:45;;;;;;;;;;;;;;;;;;5010679;28;20012;-64
2021/01/04 14:12:11;;;;;;;;;;;;;;;;;;5012476;28;19964;-63
2021/01/04 14:14:38;;;;;;;;;;;;;;;;;;5005851;28;19929;-64
2021/01/04 14:17:04;;;;;;;;;;;;;;;;;;5004072;28;19979;-64
2021/01/04 14:19:31;;;;;;;;;;;;;;;;;;5013353;28;20358;-66
2021/01/04 14:22:00;;;;;;;;;;;;;;;;;;5014216;28;19926;-65
2021/01/04 14:24:26;;;;;;;;;;;;;;;;;;5013021;28;20330;-64
2021/01/04 14:26:53;;;;;;;;;;;;;;;;;;5010208;28;19925;-65
2021/01/04 14:29:19;;;;;;;;;;;;;;;;;;5013780;28;19936;-64
2021/01/04 14:31:46;;;;;;;;;;;;;;;;;;5012975;28;19929;-64
2021/01/04 14:34:12;;;;;;;;;;;;;;;;;;5008835;28;20020;-64
2021/01/04 14:36:39;;;;;;;;;;;;;;;;;;5008255;28;19925;-65
2021/01/04 14:39:05;;;;;;;;;;;;;;;;;;5014728;28;19925;-64
2021/01/04 14:41:32;;;;;;;;;;;;;;;;;;5012663;28;19925;-65
2021/01/04 14:43:58;;;;;;;;;;;;;;;;;;5009992;28;20020;-65
2021/01/04 14:46:25;;;;;;;;;;;;;;;;;;5013666;28;19926;-65
2021/01/04 14:48:51;;;;;;;;;;;;;;;;;;5014435;28;19932;-65
2021/01/04 14:51:18;;;;;;;;;;;;;;;;;;5012463;28;20477;-65
2021/01/04 14:53:45;;;;;;;;;;;;;;;;;;5010841;28;19929;-70
2021/01/04 14:56:11;;;;;;;;;;;;;;;;;;5012485;28;20017;-65
2021/01/04 14:58:38;;;;;;;;;;;;;;;;;;5007950;28;20205;-64
2021/01/04 15:01:05;;;;;;;;;;;;;;;;;;5011512;28;19984;-64
2021/01/04 15:03:31;;;;;;;;;;;;;;;;;;5012879;28;20016;-64
2021/01/04 15:05:58;;;;;;;;;;;;;;;;;;5013666;28;20024;-64
2021/01/04 15:08:24;;;;;;;;;;;;;;;;;;5013907;28;19932;-64
2021/01/04 15:10:51;;;;;;;;;;;;;;;;;;5012991;28;20391;-64
2021/01/04 15:13:17;;;;;;;;;;;;;;;;;;5012482;28;19971;-64
2021/01/04 15:15:44;;;;;;;;;;;;;;;;;;5013007;28;19936;-63
2021/01/04 15:18:10;;;;;;;;;;;;;;;;;;5002335;28;20012;-63
2021/01/04 15:20:37;;;;;;;;;;;;;;;;;;5013433;28;20024;-63
2021/01/04 15:23:03;;;;;;;;;;;;;;;;;;5012697;28;20015;-63
2021/01/04 15:25:30;;;;;;;;;;;;;;;;;;5013258;28;19926;-63
2021/01/04 15:27:56;;;;;;;;;;;;;;;;;;5012180;28;20045;-63
2021/01/04 15:30:23;;;;;;;;;;;;;;;;;;5014012;28;19929;-64
2021/01/04 15:32:49;;;;;;;;;;;;;;;;;;5010993;28;20008;-64
2021/01/04 15:35:16;;;;;;;;;;;;;;;;;;5010200;28;19930;-63
2021/01/04 15:37:42;;;;;;;;;;;;;;;;;;5012689;28;20418;-64
2021/01/04 15:40:09;;;;;;;;;;;;;;;;;;5013122;28;19925;-64
2021/01/04 15:42:35;;;;;;;;;;;;;;;;;;5014145;28;20301;-64
2021/01/04 15:45:02;;;;;;;;;;;;;;;;;;5011327;28;19925;-64
2021/01/04 15:47:28;;;;;;;;;;;;;;;;;;5012414;28;19925;-63
2021/01/04 15:49:55;;;;;;;;;;;;;;;;;;5006079;28;19929;-63
2021/01/04 15:52:21;;;;;;;;;;;;;;;;;;5012433;28;19931;-63
2021/01/04 15:54:48;;;;;;;;;;;;;;;;;;5012478;28;19929;-64
2021/01/04 15:57:14;;;;;;;;;;;;;;;;;;5013996;28;19925;-63
2021/01/04 15:59:41;;;;;;;;;;;;;;;;;;5011833;28;19930;-63
2021/01/04 16:02:07;;;;;;;;;;;;;;;;;;5013758;28;19967;-63
2021/01/04 16:04:34;;;;;;;;;;;;;;;;;;5011793;28;19926;-64
2021/01/04 16:07:00;;;;;;;;;;;;;;;;;;5013642;28;19929;-64
2021/01/04 16:09:26;;;;;;;;;;;;;;;;;;5014328;28;19941;-63
2021/01/04 16:11:53;;;;;;;;;;;;;;;;;;5005052;28;20280;-63
2021/01/04 16:14:20;;;;;;;;;;;;;;;;;;5012670;28;19929;-63
2021/01/04 16:16:46;;;;;;;;;;;;;;;;;;4997328;28;19933;-68
2021/01/04 16:19:13;;;;;;;;;;;;;;;;;;4995806;28;20007;-63
2021/01/04 16:21:39;;;;;;;;;;;;;;;;;;4996496;28;19940;-64
2021/01/04 16:24:06;;;;;;;;;;;;;;;;;;4995226;28;19929;-63
2021/01/04 16:26:34;;;;;;;;;;;;;;;;;;4997341;28;19941;-63
2021/01/04 16:29:01;;;;;;;;;;;;;;;;;;4995123;28;19932;-63
2021/01/04 16:31:27;;;;;;;;;;;;;;;;;;4996894;28;20016;-63
2021/01/04 16:33:54;;;;;;;;;;;;;;;;;;4995729;28;19933;-63
2021/01/04 16:36:20;;;;;;;;;;;;;;;;;;5004297;28;19929;-63
2021/01/04 16:38:47;;;;;;;;;;;;;;;;;;5008416;28;20008;-63
2021/01/04 16:41:13;;;;;;;;;;;;;;;;;;5009535;28;20104;-63